Time;durP1;ratioP1;P1;durP2;ratioP2;P2;SDS_P1;SDS_P2;PMS_P1;PMS_P2;Temp;Humidity;BMP_temperature;BMP_pressure;BME280_temperature;BME280_humidity;BME280_pressure;Samples;Min_cycle;Max_cycle;Signal;HPM_P1;HPM_P2
2022/08/12 00:44:44;;;;;;;;;23.50;20.50;;;;;;;;5050342;28;45367;-63
2022/08/12 00:47:10;;;;;;;;;20.00;19.50;;;;;;;;5051622;28;45424;-64
2022/08/12 00:49:36;;;;;;;;;25.25;22.50;;;;;;;;5051431;28;46334;-64
2022/08/12 00:52:05;;;;;;;;;19.00;18.00;;;;;;;;5051683;28;45322;-64
2022/08/12 00:54:32;;;;;;;;;18.25;18.25;;;;;;;;5051862;28;45424;-64
2022/08/12 00:56:57;;;;;;;;;21.75;18.25;;;;;;;;5051868;28;45430;-63
2022/08/12 00:59:23;;;;;;;;;20.25;19.50;;;;;;;;5051698;28;46023;-64
2022/08/12 01:01:49;;;;;;;;;21.50;18.75;;;;;;;;5051884;28;45394;-63
2022/08/12 01:12:32;;;;;;;;;20.25;17.25;;;;;;;;5051443;28;45400;-63
2022/08/12 01:14:58;;;;;;;;;15.75;15.75;;;;;;;;5051847;28;45610;-65
2022/08/12 01:17:24;;;;;;;;;16.75;14.00;;;;;;;;5051751;28;45445;-63
2022/08/12 01:19:51;;;;;;;;;14.50;14.50;;;;;;;;5051494;28;45446;-64
2022/08/12 01:22:24;;;;;;;;;15.75;15.50;;;;;;;;5051277;28;45496;-64
2022/08/12 01:24:58;;;;;;;;;20.25;19.50;;;;;;;;5051626;28;45436;-62
2022/08/12 01:27:26;;;;;;;;;15.75;15.75;;;;;;;;5064266;28;45433;-63
2022/08/12 01:29:51;;;;;;;;;17.75;16.75;;;;;;;;5053427;27;47596;-64
2022/08/12 01:32:19;;;;;;;;;24.25;22.25;;;;;;;;5053436;28;45672;-64
2022/08/12 01:34:50;;;;;;;;;21.75;19.50;;;;;;;;5071672;28;45463;-63
2022/08/12 01:37:17;;;;;;;;;20.00;18.25;;;;;;;;5071673;28;45288;-64
2022/08/12 01:39:46;;;;;;;;;20.75;20.75;;;;;;;;5073166;28;45415;-65
2022/08/12 01:42:12;;;;;;;;;19.50;19.00;;;;;;;;5074458;28;45509;-64
2022/08/12 01:44:38;;;;;;;;;20.75;17.00;;;;;;;;5056426;28;45444;-65
2022/08/12 01:47:22;;;;;;;;;18.25;18.25;;;;;;;;5074421;28;45401;-64
2022/08/12 01:50:04;;;;;;;;;18.75;17.00;;;;;;;;5074369;28;45935;-65
2022/08/12 01:52:29;;;;;;;;;14.25;14.25;;;;;;;;5074386;28;45399;-65
2022/08/12 01:54:57;;;;;;;;;16.00;16.00;;;;;;;;5074520;27;45479;-65
2022/08/12 01:57:25;;;;;;;;;13.50;13.50;;;;;;;;5074396;28;45576;-64
2022/08/12 01:59:58;;;;;;;;;17.50;17.50;;;;;;;;5073920;28;46396;-64
2022/08/12 02:02:26;;;;;;;;;9.00;8.00;;;;;;;;5074118;28;45408;-64
2022/08/12 02:11:23;;;;;;;;;18.00;17.25;;;;;;;;5075019;28;45825;-64
2022/08/12 02:13:59;;;;;;;;;15.50;15.50;;;;;;;;5075018;27;45433;-63
2022/08/12 02:16:44;;;;;;;;;18.00;16.75;;;;;;;;5074836;27;45477;-63
2022/08/12 02:19:18;;;;;;;;;13.50;13.50;;;;;;;;5057950;28;45413;-64
2022/08/12 02:21:50;;;;;;;;;17.50;16.25;;;;;;;;5074488;28;46088;-64
2022/08/12 02:24:18;;;;;;;;;20.50;17.75;;;;;;;;5074666;27;45481;-63
2022/08/12 02:26:45;;;;;;;;;17.50;17.50;;;;;;;;5074614;27;45449;-64
2022/08/12 02:29:11;;;;;;;;;15.25;14.25;;;;;;;;5074827;28;45543;-64
2022/08/12 02:31:37;;;;;;;;;16.00;16.00;;;;;;;;5074530;28;45412;-64
2022/08/12 02:34:02;;;;;;;;;20.00;17.50;;;;;;;;5074575;28;45465;-64
2022/08/12 02:36:29;;;;;;;;;17.25;16.00;;;;;;;;5074667;28;45929;-64
2022/08/12 02:38:56;;;;;;;;;18.25;17.25;;;;;;;;5074749;28;45583;-64
2022/08/12 02:41:24;;;;;;;;;16.25;16.25;;;;;;;;5057575;28;46625;-64
2022/08/12 02:43:51;;;;;;;;;17.75;17.00;;;;;;;;5013702;28;45390;-64
2022/08/12 02:46:22;;;;;;;;;14.75;14.75;;;;;;;;5013536;28;45486;-62
2022/08/12 02:48:59;;;;;;;;;16.75;16.50;;;;;;;;5013378;28;45376;-63
2022/08/12 02:51:28;;;;;;;;;19.50;18.00;;;;;;;;5013183;28;46737;-63
2022/08/12 02:53:56;;;;;;;;;19.25;16.50;;;;;;;;4995599;28;45472;-63
2022/08/12 02:56:22;;;;;;;;;20.50;18.50;;;;;;;;5013395;28;45393;-63
2022/08/12 02:58:48;;;;;;;;;15.00;15.00;;;;;;;;5013428;27;45494;-64
2022/08/12 03:01:14;;;;;;;;;17.50;17.50;;;;;;;;5013222;28;46725;-63
2022/08/12 03:03:40;;;;;;;;;19.00;19.00;;;;;;;;4995430;28;45404;-63
2022/08/12 03:06:17;;;;;;;;;14.50;14.50;;;;;;;;5012030;28;45429;-63
2022/08/12 03:08:45;;;;;;;;;19.25;17.75;;;;;;;;5013607;27;45582;-64
2022/08/12 03:11:19;;;;;;;;;17.75;17.75;;;;;;;;5013020;28;45473;-65
2022/08/12 03:13:46;;;;;;;;;20.00;18.75;;;;;;;;5013358;27;45404;-64
2022/08/12 03:16:11;;;;;;;;;16.00;15.00;;;;;;;;4995513;28;45604;-64
2022/08/12 03:18:40;;;;;;;;;18.75;17.25;;;;;;;;5012913;27;45377;-63
2022/08/12 03:21:05;;;;;;;;;17.00;17.00;;;;;;;;5013204;27;46482;-63
2022/08/12 03:23:31;;;;;;;;;16.50;16.50;;;;;;;;5042195;27;45649;-64
2022/08/12 03:26:00;;;;;;;;;16.25;15.50;;;;;;;;5053645;28;45475;-63
2022/08/12 03:31:11;;;;;;;;;13.50;13.50;;;;;;;;5073351;28;45532;-64
2022/08/12 03:33:37;;;;;;;;;15.25;15.25;;;;;;;;5054994;27;46039;-64
2022/08/12 03:36:05;;;;;;;;;16.75;15.50;;;;;;;;5073171;28;45518;-63
2022/08/12 03:38:31;;;;;;;;;18.75;18.75;;;;;;;;5054947;27;45430;-63
2022/08/12 04:00:29;;;;;;;;;14.25;13.00;;;;;;;;5072919;28;45574;-64
2022/08/12 04:03:00;;;;;;;;;16.00;14.75;;;;;;;;5071864;28;45735;-65
2022/08/12 04:05:26;;;;;;;;;14.75;14.75;;;;;;;;5072575;28;45282;-64
2022/08/12 04:07:52;;;;;;;;;16.00;16.00;;;;;;;;5054667;28;45394;-64
2022/08/12 04:10:18;;;;;;;;;15.75;15.75;;;;;;;;5072820;28;45424;-64
2022/08/12 04:15:28;;;;;;;;;16.75;16.25;;;;;;;;5072564;28;45337;-64
2022/08/12 04:17:54;;;;;;;;;17.00;17.00;;;;;;;;5073032;28;45360;-64
2022/08/12 04:20:21;;;;;;;;;16.25;16.00;;;;;;;;5072489;28;45481;-64
2022/08/12 04:22:47;;;;;;;;;19.00;16.50;;;;;;;;5072256;28;46587;-64
2022/08/12 04:25:12;;;;;;;;;18.75;18.25;;;;;;;;5072575;28;45587;-64
2022/08/12 04:27:38;;;;;;;;;16.00;16.00;;;;;;;;5054783;27;45669;-64
2022/08/12 04:30:04;;;;;;;;;22.75;19.00;;;;;;;;5072751;28;45489;-64
2022/08/12 04:32:29;;;;;;;;;13.75;13.75;;;;;;;;5072177;28;46439;-64
2022/08/12 04:34:54;;;;;;;;;17.75;17.75;;;;;;;;5054276;28;45443;-64
2022/08/12 04:37:20;;;;;;;;;19.00;17.50;;;;;;;;5072805;28;45685;-64
2022/08/12 04:39:45;;;;;;;;;19.25;18.25;;;;;;;;5072542;28;45546;-63
2022/08/12 04:42:10;;;;;;;;;16.75;16.50;;;;;;;;5072221;28;47218;-63
2022/08/12 04:44:36;;;;;;;;;18.50;18.50;;;;;;;;5072358;28;45413;-64
2022/08/12 04:47:01;;;;;;;;;16.75;16.00;;;;;;;;5072499;27;45418;-64
2022/08/12 04:49:27;;;;;;;;;19.00;17.00;;;;;;;;5072369;28;45321;-64
2022/08/12 04:51:53;;;;;;;;;13.00;13.00;;;;;;;;5072293;28;46536;-64
2022/08/12 04:54:19;;;;;;;;;17.25;16.00;;;;;;;;5072034;28;45359;-64
2022/08/12 04:56:45;;;;;;;;;19.00;19.00;;;;;;;;5072251;28;45285;-64
2022/08/12 04:59:13;;;;;;;;;16.25;16.25;;;;;;;;5054180;27;45670;-65
2022/08/12 05:01:39;;;;;;;;;15.25;15.25;;;;;;;;5072032;28;46624;-64
2022/08/12 05:04:05;;;;;;;;;16.00;16.00;;;;;;;;5072077;27;45588;-64
2022/08/12 05:06:30;;;;;;;;;14.75;13.25;;;;;;;;5072239;28;45457;-64
2022/08/12 05:08:56;;;;;;;;;15.50;15.00;;;;;;;;5037248;27;45545;-64
2022/08/12 05:11:24;;;;;;;;;17.50;16.50;;;;;;;;5071983;28;45545;-64
2022/08/12 05:13:51;;;;;;;;;18.25;18.25;;;;;;;;5072044;28;45338;-64
2022/08/12 05:16:16;;;;;;;;;15.00;15.00;;;;;;;;5071878;28;45377;-64
2022/08/12 05:18:42;;;;;;;;;20.00;15.75;;;;;;;;5071898;28;45475;-64
2022/08/12 05:21:08;;;;;;;;;14.50;14.50;;;;;;;;5071628;28;45799;-64
2022/08/12 05:23:35;;;;;;;;;16.25;14.75;;;;;;;;5071498;28;45471;-64
2022/08/12 05:26:00;;;;;;;;;16.00;14.75;;;;;;;;5071811;28;45470;-65
2022/08/12 05:28:27;;;;;;;;;14.50;14.50;;;;;;;;5071733;28;45382;-64
2022/08/12 05:30:52;;;;;;;;;17.75;17.75;;;;;;;;5071383;28;46463;-63
2022/08/12 05:33:17;;;;;;;;;15.50;15.50;;;;;;;;5071514;28;45399;-64
2022/08/12 05:35:44;;;;;;;;;18.00;17.25;;;;;;;;5071559;28;45523;-63
2022/08/12 05:40:55;;;;;;;;;19.00;19.00;;;;;;;;5071263;28;45447;-63
2022/08/12 05:43:20;;;;;;;;;14.50;14.50;;;;;;;;5053167;27;45562;-63
2022/08/12 05:45:46;;;;;;;;;16.75;16.00;;;;;;;;5071578;28;45411;-63
2022/08/12 05:48:12;;;;;;;;;19.00;16.00;;;;;;;;5071338;28;45466;-65
2022/08/12 05:50:37;;;;;;;;;16.75;16.75;;;;;;;;5071357;28;45999;-62
2022/08/12 05:53:02;;;;;;;;;14.50;14.50;;;;;;;;5071433;27;45299;-63
2022/08/12 05:55:28;;;;;;;;;16.25;16.25;;;;;;;;5053234;28;45389;-63
2022/08/12 05:57:54;;;;;;;;;15.50;15.50;;;;;;;;5071482;28;45408;-63
2022/08/12 06:00:20;;;;;;;;;15.25;15.25;;;;;;;;5071009;28;45532;-65
2022/08/12 06:02:45;;;;;;;;;18.00;16.75;;;;;;;;5071159;28;45365;-64
2022/08/12 06:05:11;;;;;;;;;17.75;16.50;;;;;;;;5053043;27;45410;-63
2022/08/12 06:07:40;;;;;;;;;20.50;18.75;;;;;;;;5071271;28;45592;-63
2022/08/12 06:10:06;;;;;;;;;16.75;15.25;;;;;;;;5070989;28;45416;-65
2022/08/12 06:12:31;;;;;;;;;16.00;14.00;;;;;;;;5070760;28;45505;-64
2022/08/12 06:14:56;;;;;;;;;16.00;14.25;;;;;;;;5071218;27;45549;-63
2022/08/12 06:17:21;;;;;;;;;15.50;15.00;;;;;;;;5071524;27;45415;-63
2022/08/12 06:19:47;;;;;;;;;19.25;18.25;;;;;;;;5052742;28;48893;-63
2022/08/12 06:22:13;;;;;;;;;20.50;16.25;;;;;;;;5070631;27;45461;-63
2022/08/12 06:24:38;;;;;;;;;17.25;17.25;;;;;;;;5071474;28;45408;-63
2022/08/12 06:27:03;;;;;;;;;17.50;17.50;;;;;;;;5074102;28;45412;-63
2022/08/12 06:29:28;;;;;;;;;15.25;15.25;;;;;;;;5055659;27;47711;-63
2022/08/12 06:31:53;;;;;;;;;16.75;14.75;;;;;;;;5074400;27;45792;-63
2022/08/12 06:34:19;;;;;;;;;15.00;14.50;;;;;;;;5055966;27;45403;-63
2022/08/12 06:36:44;;;;;;;;;16.25;15.50;;;;;;;;5055855;27;45533;-63
2022/08/12 06:39:10;;;;;;;;;19.50;17.25;;;;;;;;5073790;28;45727;-63
2022/08/12 06:44:19;;;;;;;;;14.50;12.25;;;;;;;;5073798;28;45423;-64
2022/08/12 06:46:46;;;;;;;;;13.75;13.75;;;;;;;;5073807;28;45327;-64
2022/08/12 06:49:12;;;;;;;;;17.75;15.50;;;;;;;;5073730;28;46614;-64
2022/08/12 06:51:37;;;;;;;;;14.50;14.00;;;;;;;;5073687;28;45421;-63
2022/08/12 06:54:02;;;;;;;;;13.00;13.00;;;;;;;;5073801;28;45344;-64
2022/08/12 06:56:28;;;;;;;;;13.00;12.25;;;;;;;;5073632;27;45436;-63
2022/08/12 06:58:54;;;;;;;;;15.00;13.25;;;;;;;;5073685;28;45605;-64
2022/08/12 07:01:19;;;;;;;;;14.75;13.50;;;;;;;;5055405;28;45374;-64
2022/08/12 07:03:44;;;;;;;;;14.50;12.25;;;;;;;;5073881;27;45627;-63
2022/08/12 07:06:10;;;;;;;;;14.00;13.75;;;;;;;;5073525;28;45485;-63
2022/08/12 07:08:36;;;;;;;;;16.25;15.50;;;;;;;;5055375;28;45759;-63
2022/08/12 07:11:03;;;;;;;;;14.00;11.75;;;;;;;;5073441;28;45461;-63
2022/08/12 07:13:42;;;;;;;;;8.50;8.00;;;;;;;;5073653;28;45333;-63
2022/08/12 07:16:08;;;;;;;;;13.25;13.00;;;;;;;;5073488;28;45436;-63
2022/08/12 07:18:33;;;;;;;;;16.50;15.00;;;;;;;;5073302;28;45423;-63
2022/08/12 07:21:02;;;;;;;;;12.50;12.50;;;;;;;;5054916;27;45606;-64
2022/08/12 07:23:29;;;;;;;;;11.25;11.25;;;;;;;;5073411;27;45281;-64
2022/08/12 07:25:55;;;;;;;;;13.50;13.25;;;;;;;;5067256;27;45362;-64
2022/08/12 07:28:24;;;;;;;;;12.75;11.00;;;;;;;;5059800;28;47799;-63
2022/08/12 07:30:53;;;;;;;;;16.00;13.75;;;;;;;;5061666;28;45438;-65
2022/08/12 07:33:21;;;;;;;;;14.00;12.75;;;;;;;;5073472;28;45668;-64
2022/08/12 07:35:48;;;;;;;;;13.50;12.75;;;;;;;;5072802;28;45435;-65
2022/08/12 07:38:23;;;;;;;;;9.25;9.25;;;;;;;;5072348;28;46662;-65
2022/08/12 07:40:48;;;;;;;;;11.25;11.00;;;;;;;;5073083;28;45527;-65
2022/08/12 07:43:13;;;;;;;;;12.00;11.25;;;;;;;;5059791;28;45324;-64
2022/08/12 07:45:39;;;;;;;;;11.25;11.00;;;;;;;;5067257;27;45650;-64
2022/08/12 07:48:04;;;;;;;;;14.50;11.25;;;;;;;;5068017;28;46574;-64
2022/08/12 07:50:29;;;;;;;;;10.75;9.00;;;;;;;;5066040;28;45462;-64
2022/08/12 07:52:55;;;;;;;;;10.25;9.75;;;;;;;;5056130;28;45437;-64
2022/08/12 07:55:20;;;;;;;;;11.50;11.50;;;;;;;;5034725;28;45504;-63
2022/08/12 07:57:54;;;;;;;;;11.25;11.00;;;;;;;;5052703;27;45907;-64
2022/08/12 08:00:20;;;;;;;;;10.00;9.50;;;;;;;;5052495;28;45419;-64
2022/08/12 08:02:45;;;;;;;;;11.25;10.75;;;;;;;;5034721;28;45361;-64
2022/08/12 08:05:11;;;;;;;;;12.50;11.50;;;;;;;;5052930;28;45495;-64
2022/08/12 08:07:37;;;;;;;;;11.00;10.00;;;;;;;;5052538;28;46477;-64
2022/08/12 08:10:05;;;;;;;;;15.25;13.25;;;;;;;;5052580;28;45540;-64
2022/08/12 08:15:14;;;;;;;;;10.75;10.75;;;;;;;;5052546;28;45447;-64
2022/08/12 08:17:50;;;;;;;;;10.00;10.00;;;;;;;;5052403;28;45671;-63
2022/08/12 08:20:27;;;;;;;;;11.00;11.00;;;;;;;;5052205;28;45428;-64
2022/08/12 08:22:52;;;;;;;;;10.25;9.00;;;;;;;;5052481;27;45592;-64
2022/08/12 08:25:19;;;;;;;;;8.75;8.75;;;;;;;;5034298;28;45530;-63
2022/08/12 08:27:45;;;;;;;;;10.50;10.50;;;;;;;;5068004;28;46631;-63
2022/08/12 08:30:11;;;;;;;;;7.50;7.50;;;;;;;;5072480;28;45428;-64
2022/08/12 08:32:38;;;;;;;;;10.00;9.00;;;;;;;;5054446;27;45456;-63
2022/08/12 08:35:04;;;;;;;;;7.00;7.00;;;;;;;;5072663;28;45451;-63
2022/08/12 08:37:29;;;;;;;;;10.25;9.25;;;;;;;;5054140;28;47462;-65
2022/08/12 08:42:35;;;;;;;;;7.50;7.50;;;;;;;;5069741;27;45567;-63
2022/08/12 08:42:44;;;;;;;;;9.00;9.00;;;;;;;;5056369;27;45347;-63
2022/08/12 08:45:11;;;;;;;;;6.75;6.75;;;;;;;;5072211;28;45488;-64
2022/08/12 08:47:44;;;;;;;;;8.25;8.00;;;;;;;;5041607;28;47753;-63
2022/08/12 08:50:09;;;;;;;;;9.00;8.00;;;;;;;;5051909;28;45447;-63
2022/08/12 08:52:36;;;;;;;;;9.75;9.75;;;;;;;;5044465;28;45401;-63
2022/08/12 08:55:01;;;;;;;;;9.00;9.00;;;;;;;;5053139;28;45593;-64
2022/08/12 08:57:26;;;;;;;;;8.00;8.00;;;;;;;;5051932;28;46514;-62
2022/08/12 08:59:51;;;;;;;;;7.75;7.50;;;;;;;;5055823;28;45480;-63
2022/08/12 09:02:18;;;;;;;;;9.75;9.75;;;;;;;;5036305;28;45463;-63
2022/08/12 09:04:44;;;;;;;;;11.25;9.25;;;;;;;;5052024;28;45398;-63
2022/08/12 09:07:11;;;;;;;;;10.50;9.00;;;;;;;;5033762;27;47431;-63
2022/08/12 09:09:36;;;;;;;;;6.50;6.50;;;;;;;;5051807;28;45705;-62
2022/08/12 09:14:47;;;;;;;;;7.50;7.50;;;;;;;;5051866;28;45398;-63
2022/08/12 09:17:12;;;;;;;;;6.50;6.50;;;;;;;;5051756;28;46525;-63
2022/08/12 09:19:38;;;;;;;;;8.25;8.25;;;;;;;;5051584;28;45334;-63
2022/08/12 09:22:03;;;;;;;;;8.75;7.75;;;;;;;;5051670;27;45448;-63
2022/08/12 09:24:29;;;;;;;;;6.50;6.50;;;;;;;;5034116;27;45476;-63
2022/08/12 09:26:54;;;;;;;;;7.50;7.50;;;;;;;;5060236;28;46386;-64
2022/08/12 09:29:20;;;;;;;;;8.00;7.00;;;;;;;;5053464;28;45445;-64
2022/08/12 09:31:46;;;;;;;;;9.25;8.00;;;;;;;;5071721;28;45413;-63
2022/08/12 09:34:12;;;;;;;;;8.50;8.50;;;;;;;;5071645;28;45383;-63
2022/08/12 09:36:37;;;;;;;;;6.00;6.00;;;;;;;;5071571;28;46161;-64
2022/08/12 09:39:07;;;;;;;;;7.50;7.50;;;;;;;;5071732;28;45649;-64
2022/08/12 09:41:38;;;;;;;;;8.50;8.50;;;;;;;;5071773;28;45332;-63
2022/08/12 09:46:48;;;;;;;;;6.25;6.25;;;;;;;;5071498;28;45755;-63
2022/08/12 09:49:14;;;;;;;;;5.50;5.50;;;;;;;;5071652;28;45472;-64
2022/08/12 09:51:41;;;;;;;;;7.50;7.50;;;;;;;;5071867;28;46067;-63
2022/08/12 09:54:07;;;;;;;;;7.25;6.50;;;;;;;;5071260;28;45504;-63
2022/08/12 09:56:33;;;;;;;;;5.50;5.50;;;;;;;;5071172;28;45732;-63
2022/08/12 09:58:58;;;;;;;;;6.00;6.00;;;;;;;;5071334;28;45582;-63
2022/08/12 10:01:23;;;;;;;;;7.00;5.75;;;;;;;;5074239;28;45404;-63
2022/08/12 10:03:48;;;;;;;;;3.75;3.75;;;;;;;;5074681;28;45509;-63
2022/08/12 10:06:14;;;;;;;;;4.50;4.50;;;;;;;;5074331;28;45778;-64
2022/08/12 10:08:39;;;;;;;;;6.25;6.25;;;;;;;;5056026;28;46017;-65
2022/08/12 10:13:51;;;;;;;;;5.00;5.00;;;;;;;;5074257;28;45375;-63
2022/08/12 10:16:24;;;;;;;;;8.00;8.00;;;;;;;;5055877;28;47292;-64
2022/08/12 10:18:55;;;;;;;;;4.00;4.00;;;;;;;;5055952;28;45841;-63
2022/08/12 10:21:22;;;;;;;;;5.25;5.25;;;;;;;;5074448;28;45408;-63
2022/08/12 10:23:48;;;;;;;;;6.00;6.00;;;;;;;;5074250;28;45637;-63
2022/08/12 10:31:44;;;;;;;;;5.00;5.00;;;;;;;;5074293;28;45549;-63
2022/08/12 10:34:10;;;;;;;;;5.00;5.00;;;;;;;;5074193;28;45420;-63
2022/08/12 10:36:38;;;;;;;;;5.00;5.00;;;;;;;;5073993;28;46482;-63
2022/08/12 10:39:04;;;;;;;;;4.25;4.25;;;;;;;;5073946;28;45366;-62
2022/08/12 10:44:14;;;;;;;;;5.00;5.00;;;;;;;;5073949;28;45391;-64
2022/08/12 10:46:41;;;;;;;;;4.75;4.75;;;;;;;;5073569;28;47474;-63
2022/08/12 10:49:06;;;;;;;;;4.25;4.25;;;;;;;;5074075;28;45462;-62
2022/08/12 10:51:31;;;;;;;;;4.75;4.75;;;;;;;;5074058;28;45404;-62
2022/08/12 10:53:56;;;;;;;;;4.50;4.00;;;;;;;;5073995;28;45405;-63
2022/08/12 10:56:22;;;;;;;;;4.75;4.75;;;;;;;;5055739;28;47571;-63
2022/08/12 10:58:47;;;;;;;;;7.00;7.00;;;;;;;;5073514;28;45382;-63
2022/08/12 11:01:13;;;;;;;;;7.00;7.00;;;;;;;;5055789;28;45690;-64
2022/08/12 11:03:38;;;;;;;;;5.25;5.25;;;;;;;;5073910;28;45405;-63
2022/08/12 11:06:05;;;;;;;;;5.75;5.75;;;;;;;;5073648;28;46355;-63
2022/08/12 11:08:30;;;;;;;;;3.75;3.25;;;;;;;;5073522;28;45414;-63
2022/08/12 11:10:55;;;;;;;;;5.00;5.00;;;;;;;;5073350;28;45472;-64
2022/08/12 11:13:20;;;;;;;;;5.25;5.25;;;;;;;;5055425;28;45545;-63
2022/08/12 11:15:46;;;;;;;;;7.00;5.75;;;;;;;;5073335;28;46386;-64
2022/08/12 11:18:11;;;;;;;;;6.00;6.00;;;;;;;;5073483;28;45413;-64
2022/08/12 11:20:37;;;;;;;;;5.50;5.50;;;;;;;;5073656;28;45394;-64
2022/08/12 11:23:02;;;;;;;;;6.25;6.25;;;;;;;;5073247;28;45642;-63
2022/08/12 11:25:27;;;;;;;;;6.50;5.75;;;;;;;;5073401;28;45471;-63
2022/08/12 11:27:52;;;;;;;;;5.00;5.00;;;;;;;;5055251;28;45395;-63
2022/08/12 11:30:18;;;;;;;;;5.50;4.75;;;;;;;;5073465;28;45346;-63
2022/08/12 11:32:43;;;;;;;;;6.75;6.75;;;;;;;;5073520;27;45524;-64
2022/08/12 11:35:08;;;;;;;;;5.75;5.75;;;;;;;;5073214;28;46188;-65
2022/08/12 11:37:36;;;;;;;;;5.50;5.50;;;;;;;;5055085;27;45973;-64
2022/08/12 11:40:01;;;;;;;;;6.00;6.00;;;;;;;;5073456;28;45408;-64
2022/08/12 11:42:27;;;;;;;;;6.50;6.25;;;;;;;;5073325;28;45523;-63
2022/08/12 11:44:52;;;;;;;;;5.50;5.50;;;;;;;;5054884;28;46510;-63
2022/08/12 11:47:17;;;;;;;;;5.50;5.50;;;;;;;;5072935;28;45572;-63
2022/08/12 11:49:42;;;;;;;;;10.00;7.00;;;;;;;;5073096;28;45437;-63
2022/08/12 11:52:07;;;;;;;;;5.75;5.75;;;;;;;;5073306;28;45476;-63
2022/08/12 11:54:33;;;;;;;;;10.25;9.00;;;;;;;;5054640;28;46668;-63
2022/08/12 11:56:58;;;;;;;;;4.25;4.25;;;;;;;;5054786;28;45321;-63
2022/08/12 11:59:23;;;;;;;;;5.75;5.75;;;;;;;;5054897;28;45408;-63
2022/08/12 12:01:49;;;;;;;;;6.75;6.75;;;;;;;;5073326;28;45435;-62
2022/08/12 12:04:14;;;;;;;;;5.25;4.50;;;;;;;;5072829;28;46615;-63
2022/08/12 12:06:39;;;;;;;;;4.75;4.75;;;;;;;;5072814;28;45368;-63
2022/08/12 12:09:04;;;;;;;;;5.25;5.25;;;;;;;;5073077;28;45488;-64
2022/08/12 12:11:30;;;;;;;;;7.50;7.00;;;;;;;;5073092;28;45315;-64
2022/08/12 12:13:55;;;;;;;;;5.50;5.50;;;;;;;;5054632;28;47460;-64
2022/08/12 12:16:20;;;;;;;;;6.50;6.50;;;;;;;;5072804;28;45409;-63
2022/08/12 12:18:45;;;;;;;;;6.00;6.00;;;;;;;;5072763;28;45366;-63
2022/08/12 12:21:11;;;;;;;;;6.75;6.75;;;;;;;;5072839;28;45355;-63
2022/08/12 12:23:36;;;;;;;;;5.25;5.25;;;;;;;;5053552;27;46488;-63
2022/08/12 12:26:02;;;;;;;;;6.00;5.00;;;;;;;;5072684;28;45410;-62
2022/08/12 12:28:27;;;;;;;;;4.00;4.00;;;;;;;;5072820;28;45381;-62
2022/08/12 12:30:52;;;;;;;;;6.75;5.75;;;;;;;;5072679;28;45385;-63
2022/08/12 12:33:19;;;;;;;;;4.25;4.25;;;;;;;;5072851;28;45572;-64
2022/08/12 12:35:44;;;;;;;;;7.25;4.75;;;;;;;;5072888;28;45372;-62
2022/08/12 12:38:11;;;;;;;;;5.25;5.25;;;;;;;;5072720;27;45350;-64
2022/08/12 12:40:37;;;;;;;;;5.00;5.00;;;;;;;;5072622;28;45434;-63
2022/08/12 12:43:02;;;;;;;;;5.00;5.00;;;;;;;;5072334;28;45731;-63
2022/08/12 12:45:29;;;;;;;;;5.25;5.25;;;;;;;;5072266;28;45511;-63
2022/08/12 12:47:54;;;;;;;;;5.25;5.25;;;;;;;;5054439;28;45642;-63
2022/08/12 12:50:19;;;;;;;;;5.00;5.00;;;;;;;;5072609;28;46217;-63
2022/08/12 12:52:44;;;;;;;;;3.75;3.75;;;;;;;;5072281;28;46667;-62
2022/08/12 12:55:10;;;;;;;;;4.25;4.25;;;;;;;;5072421;28;45397;-65
2022/08/12 12:57:41;;;;;;;;;5.75;5.00;;;;;;;;5072414;28;45342;-63
2022/08/12 13:00:13;;;;;;;;;5.25;4.25;;;;;;;;5072335;28;45510;-62
2022/08/12 13:02:39;;;;;;;;;6.25;6.25;;;;;;;;5071972;28;46750;-64
2022/08/12 13:05:05;;;;;;;;;6.25;5.00;;;;;;;;5072138;28;45368;-64
2022/08/12 13:07:30;;;;;;;;;5.00;5.00;;;;;;;;5054021;28;45411;-63
2022/08/12 13:09:56;;;;;;;;;5.00;5.00;;;;;;;;5053910;28;45481;-64
2022/08/12 13:12:21;;;;;;;;;5.00;5.00;;;;;;;;5071845;28;46508;-64
2022/08/12 13:14:46;;;;;;;;;5.75;4.00;;;;;;;;5071943;28;45313;-63
2022/08/12 13:17:11;;;;;;;;;4.75;4.75;;;;;;;;5072303;28;45343;-63
2022/08/12 13:19:37;;;;;;;;;6.00;6.00;;;;;;;;5072051;28;45465;-62
2022/08/12 13:22:17;;;;;;;;;6.75;6.75;;;;;;;;5071623;28;46562;-63
2022/08/12 13:24:43;;;;;;;;;7.00;7.00;;;;;;;;5071867;28;45371;-63
2022/08/12 13:27:08;;;;;;;;;8.25;7.50;;;;;;;;5071846;28;45344;-63
2022/08/12 13:29:35;;;;;;;;;7.25;7.25;;;;;;;;5071891;28;45368;-63
2022/08/12 13:32:01;;;;;;;;;7.50;7.50;;;;;;;;5071837;28;46585;-64
2022/08/12 13:34:26;;;;;;;;;7.50;6.00;;;;;;;;5071751;28;45355;-64
2022/08/12 13:36:51;;;;;;;;;5.75;5.75;;;;;;;;5074591;28;45438;-64
2022/08/12 13:39:20;;;;;;;;;8.25;8.25;;;;;;;;5074955;28;45461;-63
2022/08/12 13:41:45;;;;;;;;;8.25;5.75;;;;;;;;5074540;28;45732;-63
2022/08/12 13:44:11;;;;;;;;;6.50;6.50;;;;;;;;5074762;28;45416;-63
2022/08/12 13:46:39;;;;;;;;;7.00;7.00;;;;;;;;5074602;28;45456;-63
2022/08/12 13:49:06;;;;;;;;;6.50;6.50;;;;;;;;5074723;28;45520;-64
2022/08/12 13:51:31;;;;;;;;;4.75;4.75;;;;;;;;5074396;28;45475;-63
2022/08/12 13:53:57;;;;;;;;;5.75;5.75;;;;;;;;5074323;28;45398;-64
2022/08/12 13:56:23;;;;;;;;;6.00;6.00;;;;;;;;5074652;28;45353;-64
2022/08/12 13:58:50;;;;;;;;;6.00;6.00;;;;;;;;5074459;28;45296;-62
2022/08/12 14:01:20;;;;;;;;;6.00;6.00;;;;;;;;5074385;28;46598;-64
2022/08/12 14:03:46;;;;;;;;;6.25;5.25;;;;;;;;5074293;28;45361;-63
2022/08/12 14:06:11;;;;;;;;;6.00;6.00;;;;;;;;5074488;28;45271;-64
2022/08/12 14:08:37;;;;;;;;;7.00;7.00;;;;;;;;5056488;28;45607;-63
2022/08/12 14:11:02;;;;;;;;;8.00;8.00;;;;;;;;5074290;28;45271;-62
2022/08/12 14:13:28;;;;;;;;;5.00;5.00;;;;;;;;5074403;28;45496;-64
2022/08/12 14:15:56;;;;;;;;;4.50;4.50;;;;;;;;5074720;28;45395;-63
2022/08/12 14:18:22;;;;;;;;;5.50;5.50;;;;;;;;5074659;28;45473;-63
2022/08/12 14:20:59;;;;;;;;;6.00;6.00;;;;;;;;5074117;28;46509;-63
2022/08/12 14:23:25;;;;;;;;;7.25;7.25;;;;;;;;5073904;28;45364;-63
2022/08/12 14:25:51;;;;;;;;;6.50;5.00;;;;;;;;5074285;28;45322;-64
2022/08/12 14:28:17;;;;;;;;;10.00;10.00;;;;;;;;5073946;28;45392;-64
2022/08/12 14:30:43;;;;;;;;;7.75;6.00;;;;;;;;5074055;28;45647;-63
2022/08/12 14:33:09;;;;;;;;;7.75;7.25;;;;;;;;5074057;28;45499;-63
2022/08/12 14:35:34;;;;;;;;;9.00;6.00;;;;;;;;5073995;28;45600;-61
2022/08/12 14:37:59;;;;;;;;;5.00;5.00;;;;;;;;5074156;28;45353;-64
2022/08/12 14:40:26;;;;;;;;;6.00;6.00;;;;;;;;5073849;28;46151;-63
2022/08/12 14:42:51;;;;;;;;;7.75;7.75;;;;;;;;5073873;28;45506;-63
2022/08/12 14:45:16;;;;;;;;;5.50;5.50;;;;;;;;5073681;28;45436;-63
2022/08/12 14:47:45;;;;;;;;;5.00;5.00;;;;;;;;5073887;28;45468;-63
2022/08/12 14:50:11;;;;;;;;;5.00;5.00;;;;;;;;5073815;28;45625;-63
2022/08/12 14:52:42;;;;;;;;;5.25;5.25;;;;;;;;5073824;28;45321;-62
2022/08/12 14:55:08;;;;;;;;;5.75;5.75;;;;;;;;5073705;28;45379;-63
2022/08/12 14:57:48;;;;;;;;;8.50;7.00;;;;;;;;5055624;27;45549;-64
2022/08/12 15:02:57;;;;;;;;;7.00;7.00;;;;;;;;5073548;28;45503;-63
2022/08/12 15:05:22;;;;;;;;;6.00;6.00;;;;;;;;5073619;28;45429;-64
2022/08/12 15:07:48;;;;;;;;;6.00;6.00;;;;;;;;5073787;28;45229;-63
2022/08/12 15:10:13;;;;;;;;;5.00;5.00;;;;;;;;5073557;28;45833;-63
2022/08/12 15:12:38;;;;;;;;;6.00;6.00;;;;;;;;5073647;28;45401;-62
2022/08/12 15:15:04;;;;;;;;;5.75;5.75;;;;;;;;5073675;28;45414;-64
2022/08/12 15:17:34;;;;;;;;;6.00;6.00;;;;;;;;5073510;28;45397;-63
2022/08/12 15:20:00;;;;;;;;;8.25;7.25;;;;;;;;5073325;28;46129;-63
2022/08/12 15:22:25;;;;;;;;;8.00;7.00;;;;;;;;5073109;27;45353;-62
2022/08/12 15:24:51;;;;;;;;;7.00;6.50;;;;;;;;5073505;28;45240;-63
2022/08/12 15:27:16;;;;;;;;;6.00;5.00;;;;;;;;5073450;28;45604;-62
2022/08/12 15:29:41;;;;;;;;;8.00;7.00;;;;;;;;5073178;28;46875;-63
2022/08/12 15:32:07;;;;;;;;;7.50;7.50;;;;;;;;5073317;28;45385;-62
2022/08/12 15:34:32;;;;;;;;;7.75;7.75;;;;;;;;5073599;28;45326;-63
2022/08/12 15:36:57;;;;;;;;;6.00;6.00;;;;;;;;5055227;28;45331;-63
2022/08/12 15:39:22;;;;;;;;;5.75;5.75;;;;;;;;5072953;28;46325;-62
2022/08/12 15:41:48;;;;;;;;;7.00;7.00;;;;;;;;5073276;28;45388;-63
2022/08/12 15:44:13;;;;;;;;;5.50;4.75;;;;;;;;5073419;28;45445;-63
2022/08/12 15:46:38;;;;;;;;;5.00;5.00;;;;;;;;5073179;28;45353;-62
2022/08/12 15:49:04;;;;;;;;;5.00;5.00;;;;;;;;5073146;28;46573;-61
2022/08/12 15:51:30;;;;;;;;;3.25;3.25;;;;;;;;5073041;28;45540;-62
2022/08/12 15:54:04;;;;;;;;;5.25;5.25;;;;;;;;5073179;28;45310;-63
2022/08/12 15:56:29;;;;;;;;;5.25;4.25;;;;;;;;5072989;28;45543;-62
2022/08/12 15:58:57;;;;;;;;;6.00;5.25;;;;;;;;5071524;28;45614;-62
2022/08/12 16:01:23;;;;;;;;;7.75;6.75;;;;;;;;5073012;28;45401;-62
2022/08/12 16:03:48;;;;;;;;;9.00;5.75;;;;;;;;5073206;27;45320;-63
2022/08/12 16:06:14;;;;;;;;;5.50;5.50;;;;;;;;5072979;28;45489;-64
2022/08/12 16:08:40;;;;;;;;;5.50;5.50;;;;;;;;5054562;27;47584;-62
2022/08/12 16:11:06;;;;;;;;;4.50;4.50;;;;;;;;5054372;28;45393;-64
2022/08/12 16:13:31;;;;;;;;;5.50;5.50;;;;;;;;5054697;28;45834;-63
2022/08/12 16:16:01;;;;;;;;;6.25;6.25;;;;;;;;5073007;28;45494;-63
2022/08/12 16:18:26;;;;;;;;;4.25;4.25;;;;;;;;5054541;28;48426;-63